Current Weather

Branch County Meml

Coldwater, Michigan (KOEB)

Report from: Wednesday, April 24, 2024 11:35 PM EDT
Current time: Wednesday, April 24, 2024 11:48 PM EDT

Nearby weather – Weather history – Daily summaries
Weather forecast

Temperature3.2°C (37.8°F)
Dew point-0.5°C (31.1°F)
Winds Calm
Visibility10 mi. (16.1 km)
Clouds Sky clear
Altimeter30.30 in.Hg (1026 mB)
Relative humidity77 %
Density altitude-1,777 ft. (-542 m)
Remarks Fully automated report
Automated weather observing station with precipitation discriminator
Flight conditions Visual Meteorological Conditions
Raw dataKOEB 250335Z AUTO 00000KT 10SM CLR 03/00 A3030 RMK AO2 T00321005
An error has occurred. This application may no longer respond until reloaded. Reload 🗙